createdAt,value
2023-01-30T00:01:22.071Z,33.80
2023-01-30T00:06:13.999Z,27.52
2023-01-30T00:11:07.735Z,29.55
2023-01-30T00:15:59.692Z,30.10
2023-01-30T00:21:03.566Z,29.95
2023-01-30T00:25:55.548Z,30.73
2023-01-30T00:30:51.756Z,29.85
2023-01-30T00:35:46.029Z,33.00
2023-01-30T00:40:38.813Z,28.58
2023-01-30T00:45:49.063Z,30.20
2023-01-30T00:50:43.733Z,27.85
2023-01-30T00:55:37.146Z,26.75
2023-01-30T01:00:29.313Z,25.05
2023-01-30T01:05:21.077Z,25.50
2023-01-30T01:10:16.749Z,24.92
2023-01-30T01:15:08.785Z,26.02
2023-01-30T01:20:00.645Z,23.80
2023-01-30T01:24:52.481Z,21.45
2023-01-30T01:29:44.274Z,30.80
2023-01-30T01:34:36.313Z,24.50
2023-01-30T01:39:50.988Z,29.30
2023-01-30T01:45:17.535Z,19.48
2023-01-30T01:50:19.570Z,21.30
2023-01-30T01:55:12.008Z,22.08
2023-01-30T02:00:11.798Z,22.90
2023-01-30T02:05:07.196Z,21.35
2023-01-30T02:09:59.348Z,21.85
2023-01-30T02:14:51.433Z,20.58
2023-01-30T02:19:51.788Z,20.88
2023-01-30T02:24:49.475Z,21.60
2023-01-30T02:30:10.452Z,22.30
2023-01-30T02:35:13.598Z,22.80
2023-01-30T02:40:31.896Z,24.20
2023-01-30T02:45:38.888Z,21.47
2023-01-30T02:50:37.117Z,21.52
2023-01-30T02:55:29.743Z,22.92
2023-01-30T03:00:28.859Z,20.95
2023-01-30T03:05:49.890Z,21.30
2023-01-30T03:11:11.520Z,20.67
2023-01-30T03:16:18.223Z,21.85
2023-01-30T03:21:12.328Z,23.55
2023-01-30T03:26:06.290Z,20.05
2023-01-30T03:30:58.467Z,21.30
2023-01-30T03:35:51.379Z,20.50
2023-01-30T03:40:43.228Z,18.92
2023-01-30T03:45:35.454Z,18.67
2023-01-30T03:50:28.406Z,19.35
2023-01-30T03:55:21.062Z,15.98
2023-01-30T04:00:13.890Z,18.92
2023-01-30T04:05:08.430Z,17.90
2023-01-30T04:10:01.329Z,18.80
2023-01-30T04:14:53.549Z,19.38
2023-01-30T04:20:06.126Z,18.40
2023-01-30T04:25:00.774Z,21.60
2023-01-30T04:29:52.627Z,17.00
2023-01-30T04:34:45.348Z,22.80
2023-01-30T04:39:37.474Z,14.50
2023-01-30T04:44:29.395Z,17.02
2023-01-30T04:49:37.741Z,16.58
2023-01-30T04:54:31.564Z,14.57
2023-01-30T04:59:23.823Z,18.52
2023-01-30T05:04:16.786Z,16.73
2023-01-30T05:09:08.652Z,20.50
2023-01-30T05:14:00.553Z,17.42
2023-01-30T05:18:52.678Z,20.25
2023-01-30T05:23:44.564Z,16.83
2023-01-30T05:28:36.485Z,21.80
2023-01-30T05:33:28.678Z,20.08
2023-01-30T05:38:22.203Z,17.95
2023-01-30T05:43:14.058Z,17.88
2023-01-30T05:48:06.089Z,16.33
2023-01-30T05:52:57.860Z,15.90
2023-01-30T05:57:49.670Z,13.93
2023-01-30T06:02:41.528Z,15.85
2023-01-30T06:07:33.335Z,16.67
2023-01-30T06:12:25.102Z,17.13
2023-01-30T06:17:16.913Z,16.38
2023-01-30T06:22:08.806Z,16.70
2023-01-30T06:27:00.609Z,16.52
2023-01-30T06:31:52.390Z,16.58
2023-01-30T06:36:44.242Z,16.88
2023-01-30T06:41:35.976Z,15.35
2023-01-30T06:46:27.780Z,17.33
2023-01-30T06:51:19.582Z,22.75
2023-01-30T06:56:11.385Z,28.80
2023-01-30T07:01:03.279Z,19.75
2023-01-30T07:05:55.142Z,28.10
2023-01-30T07:10:46.969Z,16.83
2023-01-30T07:15:39.474Z,17.92
2023-01-30T07:20:31.836Z,16.02
2023-01-30T07:25:25.288Z,20.65
2023-01-30T07:30:17.350Z,17.80
2023-01-30T07:35:09.817Z,20.75
2023-01-30T07:40:05.071Z,24.02
2023-01-30T07:44:56.882Z,18.88
2023-01-30T07:49:48.652Z,19.75
2023-01-30T07:54:40.493Z,23.73
2023-01-30T07:59:32.325Z,25.60
2023-01-30T08:04:24.372Z,26.58
2023-01-30T08:09:16.252Z,19.92
2023-01-30T08:14:08.126Z,25.80
2023-01-30T08:19:00.244Z,29.40
2023-01-30T08:23:52.099Z,23.13
2023-01-30T08:28:43.884Z,29.52
2023-01-30T08:33:35.812Z,24.05
2023-01-30T08:38:27.691Z,22.95
2023-01-30T08:43:19.556Z,25.17
2023-01-30T08:48:11.397Z,24.23
2023-01-30T08:53:05.868Z,41.95
2023-01-30T08:57:57.776Z,28.15
2023-01-30T09:02:53.589Z,31.10
2023-01-30T09:07:45.429Z,25.30
2023-01-30T09:12:37.300Z,25.80
2023-01-30T09:17:29.109Z,25.42
2023-01-30T09:22:20.917Z,23.35
2023-01-30T09:27:12.687Z,25.80
2023-01-30T09:32:04.699Z,24.77
2023-01-30T09:37:00.536Z,24.63
2023-01-30T09:41:59.019Z,29.02
2023-01-30T09:46:55.964Z,26.92
2023-01-30T09:52:02.989Z,23.60
2023-01-30T09:57:20.743Z,22.60
2023-01-30T10:02:34.245Z,21.38
2023-01-30T10:07:28.847Z,19.60
2023-01-30T10:12:50.650Z,17.27
2023-01-30T10:18:06.650Z,18.83
2023-01-30T10:23:17.055Z,20.83
2023-01-30T10:28:23.870Z,23.15
2023-01-30T10:33:29.974Z,22.27
2023-01-30T10:38:49.115Z,26.27
2023-01-30T10:44:06.339Z,21.52
2023-01-30T10:49:06.654Z,26.85
2023-01-30T10:54:13.530Z,26.05
2023-01-30T10:59:28.073Z,25.67
2023-01-30T11:04:22.615Z,20.52
2023-01-30T11:09:14.429Z,34.63
2023-01-30T11:14:08.409Z,36.45
2023-01-30T11:19:22.367Z,30.52
2023-01-30T11:24:21.208Z,33.90
2023-01-30T11:34:17.478Z,39.15
2023-01-30T11:39:12.492Z,38.10
2023-01-30T11:44:05.753Z,31.23
2023-01-30T11:49:44.644Z,40.92
2023-01-30T11:54:34.630Z,41.50
2023-01-30T11:59:32.254Z,37.65
2023-01-30T12:04:24.629Z,33.37
2023-01-30T12:09:32.906Z,39.20
2023-01-30T12:14:30.551Z,35.53
2023-01-30T12:19:36.044Z,35.13
2023-01-30T12:24:35.474Z,35.58
2023-01-30T12:29:36.012Z,38.70
2023-01-30T12:34:27.911Z,47.28
2023-01-30T12:39:39.515Z,35.70
2023-01-30T12:44:52.314Z,36.30
2023-01-30T12:49:54.830Z,43.03
2023-01-30T12:55:18.652Z,47.55
2023-01-30T13:00:16.824Z,49.45
2023-01-30T13:05:24.134Z,57.20
2023-01-30T13:10:36.057Z,46.75
2023-01-30T13:15:50.706Z,55.60
2023-01-30T13:20:49.113Z,49.35
2023-01-30T13:25:58.905Z,51.80
2023-01-30T13:30:53.210Z,52.42
2023-01-30T13:36:12.840Z,53.38
2023-01-30T13:41:05.796Z,54.38
2023-01-30T13:46:03.289Z,56.55
2023-01-30T13:51:01.185Z,52.90
2023-01-30T13:56:27.212Z,40.70
2023-01-30T14:01:24.669Z,46.33
2023-01-30T14:06:31.215Z,46.25
2023-01-30T14:11:47.294Z,46.78
2023-01-30T14:16:48.860Z,41.22
2023-01-30T14:21:53.805Z,42.33
2023-01-30T14:26:48.644Z,48.05
2023-01-30T14:31:50.788Z,46.67
2023-01-30T14:36:47.646Z,46.60
2023-01-30T14:41:40.983Z,52.88
2023-01-30T14:46:32.839Z,56.15
2023-01-30T14:51:39.966Z,57.78
2023-01-30T14:56:54.400Z,52.63
2023-01-30T15:02:14.044Z,51.35
2023-01-30T15:07:11.057Z,54.80
2023-01-30T15:12:41.102Z,54.70
2023-01-30T15:17:46.904Z,51.03
2023-01-30T15:23:04.265Z,47.70
2023-01-30T15:28:39.039Z,51.33
2023-01-30T15:33:32.279Z,45.42
2023-01-30T15:38:34.151Z,50.15
2023-01-30T15:43:31.992Z,47.30
2023-01-30T15:48:56.192Z,46.80
2023-01-30T15:53:48.261Z,51.08
2023-01-30T15:58:42.541Z,50.45
2023-01-30T16:03:40.843Z,44.70
2023-01-30T16:08:36.820Z,55.75
2023-01-30T16:13:29.823Z,62.58
2023-01-30T16:18:21.748Z,64.22
2023-01-30T16:23:23.650Z,57.55
2023-01-30T16:28:26.257Z,63.65
2023-01-30T16:33:18.411Z,89.63
2023-01-30T16:38:33.083Z,67.97
2023-01-30T16:43:25.871Z,67.47
2023-01-30T16:48:17.672Z,66.88
2023-01-30T16:53:16.611Z,73.03
2023-01-30T16:58:17.843Z,68.32
2023-01-30T17:03:40.867Z,61.85
2023-01-30T17:08:54.250Z,63.70
2023-01-30T17:13:46.159Z,73.30
2023-01-30T17:18:37.977Z,73.93
2023-01-30T17:23:30.463Z,73.25
2023-01-30T17:28:24.435Z,76.95
2023-01-30T17:33:16.314Z,104.60
2023-01-30T17:38:10.988Z,94.97
2023-01-30T17:43:03.003Z,84.90
2023-01-30T17:47:55.487Z,76.43
2023-01-30T17:52:47.457Z,90.72
2023-01-30T17:57:42.053Z,88.72
2023-01-30T18:02:33.931Z,98.00
2023-01-30T18:07:29.275Z,101.68
2023-01-30T18:12:21.087Z,95.68
2023-01-30T18:17:13.456Z,90.05
2023-01-30T18:22:05.225Z,80.30
2023-01-30T18:26:57.021Z,84.55
2023-01-30T18:31:48.953Z,90.43
2023-01-30T18:36:40.938Z,77.45
2023-01-30T18:41:33.112Z,75.13
2023-01-30T18:46:25.787Z,75.55
2023-01-30T18:51:20.383Z,76.00
2023-01-30T18:56:15.424Z,73.90
2023-01-30T19:01:16.053Z,68.03
2023-01-30T19:06:11.780Z,72.82
2023-01-30T19:11:27.899Z,85.25
2023-01-30T19:16:20.848Z,71.28
2023-01-30T19:21:12.876Z,72.88
2023-01-30T19:26:04.829Z,76.70
2023-01-30T19:30:57.175Z,75.07
2023-01-30T19:35:49.553Z,77.18
2023-01-30T19:40:42.820Z,75.95
2023-01-30T19:45:34.653Z,72.07
2023-01-30T19:50:26.415Z,92.50
2023-01-30T19:55:19.747Z,70.15
2023-01-30T20:00:12.283Z,77.65
2023-01-30T20:05:04.300Z,77.78
2023-01-30T20:09:56.132Z,74.22
2023-01-30T20:14:47.942Z,72.75
2023-01-30T20:19:39.741Z,69.95
2023-01-30T20:24:31.564Z,67.47
2023-01-30T20:29:23.388Z,76.55
2023-01-30T20:34:15.591Z,73.88
2023-01-30T20:39:08.553Z,71.80
2023-01-30T20:44:00.855Z,74.85
2023-01-30T20:48:54.749Z,73.68
2023-01-30T20:53:51.536Z,66.60
2023-01-30T20:58:43.387Z,65.22
2023-01-30T21:03:35.274Z,89.13
2023-01-30T21:08:27.276Z,71.68
2023-01-30T21:13:19.189Z,78.82
2023-01-30T21:18:10.969Z,78.85
2023-01-30T21:23:02.774Z,77.00
2023-01-30T21:27:54.621Z,76.13
2023-01-30T21:32:46.479Z,76.10
2023-01-30T21:37:56.852Z,72.85
2023-01-30T21:43:08.913Z,70.00
2023-01-30T21:48:00.666Z,70.82
2023-01-30T21:52:52.542Z,67.13
2023-01-30T21:57:44.363Z,73.47
2023-01-30T22:02:36.519Z,70.70
2023-01-30T22:07:28.366Z,67.15
2023-01-30T22:12:20.205Z,67.50
2023-01-30T22:17:12.001Z,66.78
2023-01-30T22:22:04.172Z,60.42
2023-01-30T22:26:55.953Z,61.60
2023-01-30T22:31:47.834Z,66.93
2023-01-30T22:36:39.744Z,62.72
2023-01-30T22:41:34.879Z,58.28
2023-01-30T22:46:29.205Z,64.65
2023-01-30T22:51:23.366Z,57.70
2023-01-30T22:56:20.250Z,62.58
2023-01-30T23:01:15.939Z,53.08
2023-01-30T23:06:09.781Z,55.83
2023-01-30T23:11:17.719Z,53.33
2023-01-30T23:16:10.045Z,53.57
2023-01-30T23:21:01.996Z,52.72
2023-01-30T23:25:53.801Z,46.85
2023-01-30T23:30:45.665Z,45.17
2023-01-30T23:35:37.831Z,42.20
2023-01-30T23:40:29.640Z,52.03
2023-01-30T23:45:21.729Z,45.28
2023-01-30T23:50:13.691Z,47.33
2023-01-30T23:55:06.846Z,45.42
2023-01-30T23:59:58.670Z,48.80
